Skanawan, Wisconsin
Current Conditions -  °F | °C
As of 3:35 AM on Saturday 20 Dec 2014 (Local Time) from KTKV Reporting Station
Haze Haze  
Wind Chill: 23°   Ceiling: 700
Heat Index: 23°   Visibility: 4mi
Dew Point: 21°   Wind: 0mph
Humidity: 93%   Direction: NA
Pressure: 30.2"   Gusts: NA
Location:  45.3496°N, 89.6689°W
Report Text: KTKV 200935Z AUTO 00000KT 4SM BR OVC007 M05/M06 A3020 RMK AO2 T10521061
Loading
Personal Weather Stations






























Interactive Weather Map New forecast layout! Learn more

10-Day Weather Forecast

Advertisements
Track Severe Weather on mobile